createdAt,value
2017-05-22T00:00:04.213Z,0
2017-05-22T00:00:30.373Z,0
2017-05-22T00:00:56.468Z,0
2017-05-22T00:01:22.582Z,0
2017-05-22T00:01:48.691Z,0
2017-05-22T00:02:14.843Z,0
2017-05-22T00:02:40.935Z,0
2017-05-22T00:03:07.067Z,0
2017-05-22T00:03:33.223Z,0
2017-05-22T00:03:59.373Z,0
2017-05-22T00:04:25.522Z,0
2017-05-22T00:04:51.613Z,0
2017-05-22T00:05:17.799Z,0
2017-05-22T00:05:43.897Z,0
2017-05-22T00:06:09.987Z,0
2017-05-22T00:06:36.121Z,0
2017-05-22T00:07:02.250Z,0
2017-05-22T00:07:28.366Z,0
2017-05-22T00:07:54.521Z,0
2017-05-22T00:08:20.682Z,0
2017-05-22T00:08:46.824Z,0
2017-05-22T00:09:12.951Z,0
2017-05-22T00:09:39.115Z,0
2017-05-22T00:10:05.259Z,0
2017-05-22T00:10:31.354Z,0
2017-05-22T00:10:57.490Z,0
2017-05-22T00:11:23.638Z,0
2017-05-22T00:11:49.754Z,0
2017-05-22T00:12:15.865Z,0
2017-05-22T00:12:41.992Z,0
2017-05-22T00:13:08.131Z,0
2017-05-22T00:13:34.265Z,0
2017-05-22T00:14:00.446Z,0
2017-05-22T00:14:26.539Z,0
2017-05-22T00:14:52.721Z,0
2017-05-22T00:15:18.865Z,0
2017-05-22T00:15:45.002Z,0
2017-05-22T00:16:11.100Z,0
2017-05-22T00:16:37.216Z,0
2017-05-22T00:17:03.350Z,0
2017-05-22T00:17:29.477Z,0
2017-05-22T00:17:55.618Z,0
2017-05-22T00:18:21.746Z,0
2017-05-22T00:18:47.882Z,0
2017-05-22T00:19:14.041Z,0
2017-05-22T00:19:40.194Z,0
2017-05-22T00:20:06.329Z,0
2017-05-22T00:20:32.418Z,0
2017-05-22T00:20:58.551Z,0
2017-05-22T00:21:24.693Z,0
2017-05-22T00:21:50.799Z,0
2017-05-22T00:22:16.932Z,0
2017-05-22T00:22:43.022Z,0
2017-05-22T00:23:09.148Z,0
2017-05-22T00:23:35.282Z,0
2017-05-22T00:24:01.426Z,0
2017-05-22T00:24:27.550Z,0
2017-05-22T00:24:53.688Z,0
2017-05-22T00:25:19.836Z,0
2017-05-22T00:25:45.952Z,0
2017-05-22T00:26:12.056Z,0
2017-05-22T00:26:38.202Z,0
2017-05-22T00:27:04.309Z,0
2017-05-22T00:27:30.428Z,0
2017-05-22T00:27:56.578Z,0
2017-05-22T00:28:22.717Z,0
2017-05-22T00:28:48.863Z,0
2017-05-22T00:29:15.003Z,0
2017-05-22T00:29:41.113Z,0
2017-05-22T00:30:07.263Z,0
2017-05-22T00:30:33.378Z,0
2017-05-22T00:30:59.484Z,0
2017-05-22T00:31:25.585Z,0
2017-05-22T00:31:51.735Z,0
2017-05-22T00:32:17.856Z,0
2017-05-22T00:32:43.970Z,0
2017-05-22T00:33:10.196Z,0
2017-05-22T00:33:36.318Z,0
2017-05-22T00:34:02.449Z,0
2017-05-22T00:34:28.583Z,0
2017-05-22T00:34:54.683Z,0
2017-05-22T00:35:20.775Z,0
2017-05-22T00:35:46.903Z,0
2017-05-22T00:36:13.010Z,0
2017-05-22T00:36:39.097Z,0
2017-05-22T00:37:05.199Z,0
2017-05-22T00:37:31.352Z,0
2017-05-22T00:37:57.485Z,0
2017-05-22T00:38:23.668Z,0
2017-05-22T00:38:49.809Z,0
2017-05-22T00:39:15.964Z,0
2017-05-22T00:39:42.124Z,0
2017-05-22T00:40:08.276Z,0
2017-05-22T00:40:34.392Z,0
2017-05-22T00:41:00.528Z,0
2017-05-22T00:41:26.620Z,0
2017-05-22T00:41:52.792Z,0
2017-05-22T00:42:18.953Z,0
2017-05-22T00:42:45.075Z,0
2017-05-22T00:43:11.181Z,0
2017-05-22T00:43:37.293Z,0
2017-05-22T00:44:03.418Z,0
2017-05-22T00:44:29.551Z,0
2017-05-22T00:44:55.645Z,0
2017-05-22T00:45:21.765Z,0
2017-05-22T00:45:47.872Z,0
2017-05-22T00:46:13.993Z,0
2017-05-22T00:46:40.084Z,0
2017-05-22T00:47:06.199Z,0
2017-05-22T00:47:32.294Z,0
2017-05-22T00:47:58.436Z,0
2017-05-22T00:48:24.595Z,0
2017-05-22T00:48:50.740Z,0
2017-05-22T00:49:16.875Z,0
2017-05-22T00:49:43.025Z,0
2017-05-22T00:50:09.162Z,0
2017-05-22T00:50:35.295Z,0
2017-05-22T00:51:01.390Z,0
2017-05-22T00:51:27.482Z,0
2017-05-22T00:51:53.617Z,0
2017-05-22T00:52:19.717Z,0
2017-05-22T00:52:45.856Z,0
2017-05-22T00:53:12.036Z,0
2017-05-22T00:53:38.199Z,0
2017-05-22T00:54:04.340Z,0
2017-05-22T00:54:30.465Z,0
2017-05-22T00:54:56.599Z,0
2017-05-22T00:55:22.717Z,0
2017-05-22T00:55:48.836Z,0
2017-05-22T00:56:14.942Z,0
2017-05-22T00:56:41.036Z,0
2017-05-22T00:57:07.116Z,0
2017-05-22T00:57:33.250Z,0
2017-05-22T00:57:59.428Z,0
2017-05-22T00:58:25.545Z,0
2017-05-22T00:58:51.707Z,0
2017-05-22T00:59:17.832Z,0
2017-05-22T00:59:43.955Z,0
2017-05-22T01:00:10.051Z,0
2017-05-22T01:00:36.165Z,0
2017-05-22T01:01:02.327Z,0
2017-05-22T01:01:28.425Z,0
2017-05-22T01:01:54.516Z,0
2017-05-22T01:02:20.623Z,0
2017-05-22T01:02:46.777Z,0
2017-05-22T01:03:12.941Z,0
2017-05-22T01:03:39.119Z,0
2017-05-22T01:04:05.282Z,0
2017-05-22T01:04:31.368Z,0
2017-05-22T01:04:57.518Z,0
2017-05-22T01:05:23.611Z,0
2017-05-22T01:05:49.739Z,0
2017-05-22T01:06:15.838Z,0
2017-05-22T01:06:41.930Z,0
2017-05-22T01:07:08.039Z,0
2017-05-22T01:07:34.204Z,0
2017-05-22T01:08:00.325Z,0
2017-05-22T01:08:26.424Z,0
2017-05-22T01:08:52.530Z,0
2017-05-22T01:09:18.644Z,0
2017-05-22T01:09:44.741Z,0
2017-05-22T01:10:10.903Z,0
2017-05-22T01:10:37.025Z,0
2017-05-22T01:11:03.183Z,0
2017-05-22T01:11:29.296Z,0
2017-05-22T01:11:55.419Z,0
2017-05-22T01:12:21.553Z,0
2017-05-22T01:12:47.720Z,0
2017-05-22T01:13:13.843Z,0
2017-05-22T01:13:40.011Z,0
2017-05-22T01:14:06.186Z,0
2017-05-22T01:14:32.324Z,0
2017-05-22T01:14:58.433Z,0
2017-05-22T01:15:24.557Z,0
2017-05-22T01:15:50.673Z,0
2017-05-22T01:16:16.806Z,0
2017-05-22T01:16:42.925Z,0
2017-05-22T01:17:09.058Z,0
2017-05-22T01:17:35.182Z,0
2017-05-22T01:18:01.273Z,0
2017-05-22T01:18:27.382Z,0
2017-05-22T01:18:53.536Z,0
2017-05-22T01:19:19.652Z,0
2017-05-22T01:19:45.788Z,0
2017-05-22T01:20:11.889Z,0
2017-05-22T01:20:37.980Z,0
2017-05-22T01:21:04.155Z,0
2017-05-22T01:21:30.289Z,0
2017-05-22T01:21:56.410Z,0
2017-05-22T01:22:22.507Z,0
2017-05-22T01:22:48.623Z,0
2017-05-22T01:23:14.784Z,0
2017-05-22T01:23:40.913Z,0
2017-05-22T01:24:07.056Z,0
2017-05-22T01:24:33.183Z,0
2017-05-22T01:24:59.347Z,0
2017-05-22T01:25:25.434Z,0
2017-05-22T01:25:51.559Z,0
2017-05-22T01:26:17.669Z,0
2017-05-22T01:26:43.784Z,0
2017-05-22T01:27:09.907Z,0
2017-05-22T01:27:36.005Z,0
2017-05-22T01:28:02.132Z,0
2017-05-22T01:28:28.270Z,0
2017-05-22T01:28:54.412Z,0
2017-05-22T01:29:20.537Z,0
2017-05-22T01:29:46.672Z,0
2017-05-22T01:30:12.791Z,0
2017-05-22T01:30:38.883Z,0
2017-05-22T01:31:04.989Z,0
2017-05-22T01:31:31.084Z,0
2017-05-22T01:31:57.197Z,0
2017-05-22T01:32:23.308Z,0
2017-05-22T01:32:49.433Z,0
2017-05-22T01:33:15.585Z,0
2017-05-22T01:33:41.702Z,0
2017-05-22T01:34:07.848Z,0
2017-05-22T01:34:34.011Z,0
2017-05-22T01:35:00.181Z,0
2017-05-22T01:35:26.274Z,0
2017-05-22T01:35:52.413Z,0
2017-05-22T01:36:18.539Z,0
2017-05-22T01:36:44.633Z,0
2017-05-22T01:37:10.739Z,0
2017-05-22T01:37:36.896Z,0
2017-05-22T01:38:03.039Z,0
2017-05-22T01:38:29.193Z,0
2017-05-22T01:38:55.329Z,0
2017-05-22T01:39:21.422Z,0
2017-05-22T01:39:47.545Z,0
2017-05-22T01:40:13.708Z,0
2017-05-22T01:40:39.801Z,0
2017-05-22T01:41:05.950Z,0
2017-05-22T01:41:32.085Z,0
2017-05-22T01:41:58.235Z,0
2017-05-22T01:42:24.325Z,0
2017-05-22T01:42:50.484Z,0
2017-05-22T01:43:16.607Z,0
2017-05-22T01:43:42.723Z,0
2017-05-22T01:44:08.932Z,0
2017-05-22T01:44:35.074Z,0
2017-05-22T01:45:01.209Z,0
2017-05-22T01:45:27.302Z,0
2017-05-22T01:45:53.392Z,0
2017-05-22T01:46:19.555Z,0
2017-05-22T01:46:45.653Z,0
2017-05-22T01:47:11.768Z,0
2017-05-22T01:47:37.897Z,0
2017-05-22T01:48:04.023Z,0
2017-05-22T01:48:30.160Z,0
2017-05-22T01:48:56.317Z,0
2017-05-22T01:49:22.450Z,0
2017-05-22T01:49:48.595Z,0
2017-05-22T01:50:14.772Z,0
2017-05-22T01:50:40.888Z,0
2017-05-22T01:51:07.001Z,0
2017-05-22T01:51:33.128Z,0
2017-05-22T01:51:59.292Z,0
2017-05-22T01:52:25.421Z,0
2017-05-22T01:52:51.556Z,0
2017-05-22T01:53:17.715Z,0
2017-05-22T01:53:43.843Z,0
2017-05-22T01:54:10.006Z,0
2017-05-22T01:54:36.121Z,0
2017-05-22T01:55:02.217Z,0
2017-05-22T01:55:28.367Z,0
2017-05-22T01:55:54.520Z,0
2017-05-22T01:56:20.632Z,0
2017-05-22T01:56:46.721Z,0
2017-05-22T01:57:12.870Z,0
2017-05-22T01:57:39.060Z,0
2017-05-22T01:58:05.208Z,0
2017-05-22T01:58:31.305Z,0
2017-05-22T01:58:57.436Z,0
2017-05-22T01:59:23.554Z,0
2017-05-22T01:59:49.647Z,0
2017-05-22T02:00:15.785Z,0
2017-05-22T02:00:41.912Z,0
2017-05-22T02:01:08.047Z,0
2017-05-22T02:01:34.157Z,0
2017-05-22T02:02:00.277Z,0
2017-05-22T02:02:26.413Z,0
2017-05-22T02:02:52.636Z,0
2017-05-22T02:03:18.802Z,0
2017-05-22T02:03:44.910Z,0
2017-05-22T02:04:11.029Z,0
2017-05-22T02:04:37.118Z,0
2017-05-22T02:05:03.251Z,0
2017-05-22T02:05:29.352Z,0
2017-05-22T02:05:55.616Z,0
2017-05-22T02:06:21.720Z,0
2017-05-22T02:06:47.811Z,0
2017-05-22T02:07:13.920Z,0
2017-05-22T02:07:40.047Z,0
2017-05-22T02:08:06.137Z,0
2017-05-22T02:08:32.268Z,0
2017-05-22T02:08:58.473Z,0
2017-05-22T02:09:24.616Z,0
2017-05-22T02:09:50.742Z,0
2017-05-22T02:10:16.875Z,0
2017-05-22T02:10:42.963Z,0
2017-05-22T02:11:09.065Z,0
2017-05-22T02:11:35.196Z,0
2017-05-22T02:12:01.313Z,0
2017-05-22T02:12:27.416Z,0
2017-05-22T02:12:53.532Z,0
2017-05-22T02:13:19.687Z,0
2017-05-22T02:13:45.852Z,0
2017-05-22T02:14:11.986Z,0
2017-05-22T02:14:38.104Z,0
2017-05-22T02:15:04.213Z,0
2017-05-22T02:15:30.306Z,0
2017-05-22T02:15:56.402Z,0
2017-05-22T02:16:22.534Z,0
2017-05-22T02:16:48.651Z,0
2017-05-22T02:17:14.744Z,0
2017-05-22T02:17:40.877Z,0
2017-05-22T02:18:07.051Z,0
2017-05-22T02:18:33.187Z,0
2017-05-22T02:18:59.308Z,0
2017-05-22T02:19:25.407Z,0
2017-05-22T02:19:51.541Z,0
2017-05-22T02:20:17.686Z,0
2017-05-22T02:20:43.777Z,0
2017-05-22T02:21:10.217Z,0
2017-05-22T02:21:36.395Z,0
2017-05-22T02:22:02.535Z,0
2017-05-22T02:22:28.642Z,0
2017-05-22T02:22:54.799Z,0
2017-05-22T02:23:20.859Z,0
2017-05-22T02:23:47.004Z,0
2017-05-22T02:24:13.167Z,0
2017-05-22T02:24:39.279Z,0
2017-05-22T02:25:05.378Z,0
2017-05-22T02:25:31.517Z,0
2017-05-22T02:25:57.655Z,0
2017-05-22T02:26:23.754Z,0
2017-05-22T02:26:49.888Z,0
2017-05-22T02:27:16.009Z,0
2017-05-22T02:27:42.099Z,0
2017-05-22T02:28:08.253Z,0
2017-05-22T02:28:34.352Z,0
2017-05-22T02:29:00.480Z,0
2017-05-22T02:29:26.571Z,0
2017-05-22T02:29:52.692Z,0
2017-05-22T02:30:18.824Z,0
2017-05-22T02:30:44.948Z,0
2017-05-22T02:31:11.038Z,0
2017-05-22T02:31:37.202Z,0
2017-05-22T02:32:03.327Z,0
2017-05-22T02:32:29.442Z,0
2017-05-22T02:32:55.549Z,0
2017-05-22T02:33:21.648Z,0
2017-05-22T02:33:47.766Z,0
2017-05-22T02:34:13.894Z,0
2017-05-22T02:34:40.036Z,0
2017-05-22T02:35:06.174Z,0
2017-05-22T02:35:35.305Z,0
2017-05-22T02:36:01.446Z,0
2017-05-22T02:36:27.579Z,0
2017-05-22T02:36:53.710Z,0
2017-05-22T02:37:19.803Z,0
2017-05-22T02:37:45.931Z,0
2017-05-22T02:38:12.036Z,0
2017-05-22T02:38:38.123Z,0
2017-05-22T02:39:04.274Z,0
2017-05-22T02:39:30.381Z,0
2017-05-22T02:39:56.496Z,0
2017-05-22T02:40:22.676Z,0
2017-05-22T02:40:48.795Z,4
2017-05-22T02:41:14.899Z,4
2017-05-22T02:41:41.036Z,4
2017-05-22T02:42:07.147Z,4
2017-05-22T02:42:33.272Z,4
2017-05-22T02:42:59.460Z,4
2017-05-22T02:43:25.578Z,0
2017-05-22T02:43:51.676Z,0
2017-05-22T02:44:17.811Z,0
2017-05-22T02:44:43.934Z,0
2017-05-22T02:45:10.074Z,0
2017-05-22T02:45:36.180Z,4
2017-05-22T02:46:02.279Z,4
2017-05-22T02:46:28.385Z,4
2017-05-22T02:46:54.500Z,4
2017-05-22T02:47:20.646Z,4
2017-05-22T02:47:46.781Z,0
2017-05-22T02:48:12.925Z,4
2017-05-22T02:48:39.020Z,4
2017-05-22T02:49:05.129Z,4
2017-05-22T02:49:31.228Z,4
2017-05-22T02:49:57.341Z,4
2017-05-22T02:50:23.500Z,8
2017-05-22T02:50:49.654Z,4
2017-05-22T02:51:15.803Z,4
2017-05-22T02:51:41.927Z,4
2017-05-22T02:52:08.017Z,8
2017-05-22T02:52:34.128Z,4
2017-05-22T02:53:00.254Z,4
2017-05-22T02:53:26.371Z,8
2017-05-22T02:53:52.556Z,8
2017-05-22T02:54:18.740Z,4
2017-05-22T02:54:44.882Z,8
2017-05-22T02:55:11.036Z,8
2017-05-22T02:55:37.170Z,8
2017-05-22T02:56:03.311Z,8
2017-05-22T02:56:29.437Z,12
2017-05-22T02:56:55.531Z,8
2017-05-22T02:57:21.666Z,12
2017-05-22T02:57:47.796Z,12
2017-05-22T02:58:13.887Z,12
2017-05-22T02:58:39.994Z,12
2017-05-22T02:59:06.097Z,16
2017-05-22T02:59:32.188Z,12
2017-05-22T02:59:58.289Z,16
2017-05-22T03:00:24.507Z,16
2017-05-22T03:00:50.598Z,16
2017-05-22T03:01:16.771Z,20
2017-05-22T03:01:42.879Z,20
2017-05-22T03:02:08.974Z,20
2017-05-22T03:02:35.080Z,24
2017-05-22T03:03:01.221Z,24
2017-05-22T03:03:27.348Z,24
2017-05-22T03:03:53.483Z,24
2017-05-22T03:04:19.598Z,24
2017-05-22T03:04:45.721Z,28
2017-05-22T03:05:11.854Z,32
2017-05-22T03:05:37.948Z,32
2017-05-22T03:06:04.115Z,32
2017-05-22T03:06:30.249Z,36
2017-05-22T03:06:56.346Z,40
2017-05-22T03:07:22.437Z,40
2017-05-22T03:07:48.545Z,44
2017-05-22T03:08:14.672Z,44
2017-05-22T03:08:40.789Z,48
2017-05-22T03:09:06.917Z,48
2017-05-22T03:09:33.106Z,52
2017-05-22T03:09:59.220Z,56
2017-05-22T03:10:25.346Z,60
2017-05-22T03:10:51.454Z,64
2017-05-22T03:11:17.567Z,64
2017-05-22T03:11:43.691Z,68
2017-05-22T03:12:09.852Z,72
2017-05-22T03:12:35.948Z,76
2017-05-22T03:13:02.066Z,80
2017-05-22T03:13:28.305Z,84
2017-05-22T03:13:54.453Z,84
2017-05-22T03:14:20.588Z,92
2017-05-22T03:14:46.744Z,96
2017-05-22T03:15:12.898Z,100
2017-05-22T03:15:39.032Z,108
2017-05-22T03:16:05.153Z,108
2017-05-22T03:16:31.244Z,116
2017-05-22T03:16:57.354Z,120
2017-05-22T03:17:23.481Z,124
2017-05-22T03:17:49.618Z,128
2017-05-22T03:18:15.780Z,136
2017-05-22T03:18:41.853Z,144
2017-05-22T03:19:07.975Z,148
2017-05-22T03:19:34.098Z,156
2017-05-22T03:20:00.263Z,160
2017-05-22T03:20:26.371Z,164
2017-05-22T03:20:52.470Z,176
2017-05-22T03:21:18.585Z,180
2017-05-22T03:21:44.691Z,188
2017-05-22T03:22:10.793Z,192
2017-05-22T03:22:36.884Z,200
2017-05-22T03:23:03.015Z,204
2017-05-22T03:23:29.149Z,212
2017-05-22T03:23:55.262Z,220
2017-05-22T03:24:21.411Z,228
2017-05-22T03:24:47.586Z,232
2017-05-22T03:25:13.749Z,240
2017-05-22T03:25:39.878Z,244
2017-05-22T03:26:05.995Z,256
2017-05-22T03:26:32.125Z,264
2017-05-22T03:26:58.233Z,272
2017-05-22T03:27:24.323Z,280
2017-05-22T03:27:50.448Z,288
2017-05-22T03:28:16.585Z,300
2017-05-22T03:28:42.727Z,308
2017-05-22T03:29:08.874Z,316
2017-05-22T03:29:35.007Z,328
2017-05-22T03:30:01.100Z,340
2017-05-22T03:30:27.191Z,352
2017-05-22T03:30:53.355Z,364
2017-05-22T03:31:19.451Z,376
2017-05-22T03:31:45.542Z,388
2017-05-22T03:32:11.677Z,400
2017-05-22T03:32:37.811Z,412
2017-05-22T03:33:03.973Z,428
2017-05-22T03:33:30.075Z,440
2017-05-22T03:33:56.182Z,452
2017-05-22T03:34:22.320Z,468
2017-05-22T03:34:48.470Z,484
2017-05-22T03:35:14.603Z,500
2017-05-22T03:35:40.744Z,516
2017-05-22T03:36:06.876Z,532
2017-05-22T03:36:32.965Z,556
2017-05-22T03:36:59.146Z,572
2017-05-22T03:37:25.198Z,592
2017-05-22T03:37:51.362Z,608
2017-05-22T03:38:17.487Z,632
2017-05-22T03:38:43.703Z,648
2017-05-22T03:39:09.846Z,664
2017-05-22T03:39:35.942Z,676
2017-05-22T03:40:02.049Z,684
2017-05-22T03:40:28.171Z,696
2017-05-22T03:40:54.261Z,704
2017-05-22T03:41:20.363Z,712
2017-05-22T03:41:46.511Z,724
2017-05-22T03:42:12.703Z,736
2017-05-22T03:42:38.794Z,752
2017-05-22T03:43:04.916Z,768
2017-05-22T03:43:31.024Z,788
2017-05-22T03:43:57.146Z,804
2017-05-22T03:44:23.287Z,824
2017-05-22T03:44:49.935Z,848
2017-05-22T03:45:17.548Z,868
2017-05-22T03:45:43.955Z,884
2017-05-22T03:46:10.956Z,908
2017-05-22T03:46:38.622Z,932
2017-05-22T03:47:06.257Z,956
2017-05-22T03:47:32.807Z,984
2017-05-22T03:47:58.946Z,1008
2017-05-22T03:48:25.107Z,1032
2017-05-22T03:48:51.260Z,1056
2017-05-22T03:49:17.401Z,1080
2017-05-22T03:49:43.560Z,1104
2017-05-22T03:50:09.714Z,1132
2017-05-22T03:50:35.831Z,1156
2017-05-22T03:51:01.937Z,1184
2017-05-22T03:51:28.102Z,1216
2017-05-22T03:51:54.189Z,1248
2017-05-22T03:52:20.333Z,1276
2017-05-22T03:52:46.494Z,1304
2017-05-22T03:53:12.633Z,1336
2017-05-22T03:53:38.731Z,1364
2017-05-22T03:54:04.865Z,1392
2017-05-22T03:54:30.988Z,1416
2017-05-22T03:54:57.106Z,1444
2017-05-22T03:55:23.296Z,1472
2017-05-22T03:55:49.393Z,1496
2017-05-22T03:56:15.482Z,1524
2017-05-22T03:56:41.587Z,1544
2017-05-22T03:57:07.987Z,1568
2017-05-22T03:57:34.078Z,1592
2017-05-22T03:58:00.233Z,1616
2017-05-22T03:58:26.324Z,1636
2017-05-22T03:58:52.459Z,1664
2017-05-22T03:59:18.615Z,1696
2017-05-22T03:59:44.704Z,1728
2017-05-22T04:00:10.836Z,1760
2017-05-22T04:00:36.935Z,1796
2017-05-22T04:01:03.050Z,1832
2017-05-22T04:01:29.153Z,1864
2017-05-22T04:01:55.286Z,1888
2017-05-22T04:02:21.372Z,1904
2017-05-22T04:02:47.520Z,1920
2017-05-22T04:03:13.683Z,1932
2017-05-22T04:03:39.828Z,1948
2017-05-22T04:04:05.964Z,1960
2017-05-22T04:04:32.054Z,1972
2017-05-22T04:04:58.208Z,1988
2017-05-22T04:05:24.345Z,2000
2017-05-22T04:05:50.429Z,2016
2017-05-22T04:06:16.530Z,2024
2017-05-22T04:06:42.638Z,2032
2017-05-22T04:07:08.727Z,2032
2017-05-22T04:07:34.875Z,2036
2017-05-22T04:08:00.982Z,2036
2017-05-22T04:08:27.075Z,2040
2017-05-22T04:08:53.189Z,2040
2017-05-22T04:09:19.343Z,2040
2017-05-22T04:09:45.492Z,2048
2017-05-22T04:10:11.625Z,2064
2017-05-22T04:10:37.713Z,2076
2017-05-22T04:11:03.809Z,2096
2017-05-22T04:11:29.975Z,2120
2017-05-22T04:11:56.068Z,2148
2017-05-22T04:12:22.283Z,2176
2017-05-22T04:12:48.491Z,2204
2017-05-22T04:13:14.533Z,2240
2017-05-22T04:13:40.646Z,2268
2017-05-22T04:14:06.803Z,2300
2017-05-22T04:14:32.928Z,2332
2017-05-22T04:14:59.075Z,2360
2017-05-22T04:15:25.198Z,2388
2017-05-22T04:15:51.313Z,2412
2017-05-22T04:16:17.423Z,2440
2017-05-22T04:16:43.520Z,2464
2017-05-22T04:17:09.635Z,2492
2017-05-22T04:17:35.794Z,2520
2017-05-22T04:18:01.947Z,2548
2017-05-22T04:18:28.065Z,2572
2017-05-22T04:18:54.169Z,2600
2017-05-22T04:19:20.306Z,2624
2017-05-22T04:19:46.396Z,2644
2017-05-22T04:20:12.540Z,2664
2017-05-22T04:20:38.661Z,2684
2017-05-22T04:21:04.769Z,2704
2017-05-22T04:21:30.866Z,2728
2017-05-22T04:21:56.980Z,2744
2017-05-22T04:22:23.083Z,2768
2017-05-22T04:22:49.190Z,2792
2017-05-22T04:23:15.301Z,2816
2017-05-22T04:23:41.406Z,2836
2017-05-22T04:24:07.512Z,2864
2017-05-22T04:24:33.631Z,2880
2017-05-22T04:24:59.752Z,2900
2017-05-22T04:25:25.916Z,2916
2017-05-22T04:25:52.070Z,2928
2017-05-22T04:26:18.225Z,2944
2017-05-22T04:26:44.313Z,2956
2017-05-22T04:27:10.412Z,2968
2017-05-22T04:27:36.606Z,2988
2017-05-22T04:28:02.689Z,3008
2017-05-22T04:28:28.857Z,3032
2017-05-22T04:28:55.021Z,3060
2017-05-22T04:29:21.142Z,3088
2017-05-22T04:29:47.233Z,3120
2017-05-22T04:30:13.424Z,3148
2017-05-22T04:30:39.551Z,3176
2017-05-22T04:31:05.692Z,3208
2017-05-22T04:31:31.846Z,3236
2017-05-22T04:31:57.966Z,3264
2017-05-22T04:32:24.101Z,3292
2017-05-22T04:32:50.247Z,3320
2017-05-22T04:33:16.387Z,3352
2017-05-22T04:33:42.552Z,3380
2017-05-22T04:34:08.678Z,3408
2017-05-22T04:34:34.820Z,3440
2017-05-22T04:35:00.977Z,3468
2017-05-22T04:35:27.077Z,3500
2017-05-22T04:35:53.167Z,3528
2017-05-22T04:36:19.316Z,3564
2017-05-22T04:36:45.421Z,3604
2017-05-22T04:37:11.509Z,3648
2017-05-22T04:37:37.609Z,3688
2017-05-22T04:38:03.741Z,3732
2017-05-22T04:38:29.883Z,3780
2017-05-22T04:38:56.007Z,3828
2017-05-22T04:39:22.142Z,3872
2017-05-22T04:39:48.261Z,3916
2017-05-22T04:40:14.374Z,3960
2017-05-22T04:40:40.511Z,4008
2017-05-22T04:41:06.607Z,4052
2017-05-22T04:41:32.722Z,4104
2017-05-22T04:41:58.856Z,4160
2017-05-22T04:42:24.984Z,4216
2017-05-22T04:42:51.109Z,4284
2017-05-22T04:43:17.230Z,4348
2017-05-22T04:43:43.346Z,4424
2017-05-22T04:44:09.483Z,4496
2017-05-22T04:44:35.632Z,4580
2017-05-22T04:45:01.747Z,4672
2017-05-22T04:45:27.851Z,4772
2017-05-22T04:45:54.005Z,4888
2017-05-22T04:46:20.096Z,4996
2017-05-22T04:46:46.208Z,5100
2017-05-22T04:47:12.333Z,5172
2017-05-22T04:47:38.421Z,5224
2017-05-22T04:48:04.629Z,5268
2017-05-22T04:48:30.711Z,5288
2017-05-22T04:48:56.817Z,5308
2017-05-22T04:49:22.916Z,5328
2017-05-22T04:49:49.080Z,5340
2017-05-22T04:50:15.234Z,5356
2017-05-22T04:50:41.369Z,5360
2017-05-22T04:51:07.455Z,5368
2017-05-22T04:51:33.554Z,5368
2017-05-22T04:51:59.660Z,5372
2017-05-22T04:52:25.775Z,5380
2017-05-22T04:52:51.923Z,5388
2017-05-22T04:53:18.084Z,5404
2017-05-22T04:53:44.236Z,5416
2017-05-22T04:54:10.362Z,5428
2017-05-22T04:54:36.449Z,5436
2017-05-22T04:55:02.599Z,5448
2017-05-22T04:55:28.705Z,5448
2017-05-22T04:55:54.795Z,5452
2017-05-22T04:56:20.917Z,5460
2017-05-22T04:56:47.024Z,5464
2017-05-22T04:57:13.146Z,5480
2017-05-22T04:57:39.311Z,5496
2017-05-22T04:58:05.501Z,5508
2017-05-22T04:58:31.599Z,5516
2017-05-22T04:58:57.740Z,5532
2017-05-22T04:59:23.874Z,5544
2017-05-22T04:59:49.994Z,5548
2017-05-22T05:00:16.128Z,5556
2017-05-22T05:00:42.223Z,5584
2017-05-22T05:01:08.312Z,5616
2017-05-22T05:01:34.448Z,5660
2017-05-22T05:02:00.545Z,5704
2017-05-22T05:02:26.635Z,5748
2017-05-22T05:02:52.767Z,5784
2017-05-22T05:03:18.895Z,5816
2017-05-22T05:03:45.011Z,5840
2017-05-22T05:04:11.140Z,5864
2017-05-22T05:04:37.302Z,5888
2017-05-22T05:05:03.420Z,5912
2017-05-22T05:05:29.596Z,5936
2017-05-22T05:05:55.687Z,5956
2017-05-22T05:06:21.794Z,5980
2017-05-22T05:06:47.893Z,6012
2017-05-22T05:07:13.987Z,6040
2017-05-22T05:07:40.090Z,6068
2017-05-22T05:08:06.224Z,6088
2017-05-22T05:08:32.335Z,6116
2017-05-22T05:08:58.438Z,6144
2017-05-22T05:09:24.571Z,6172
2017-05-22T05:09:50.687Z,6196
2017-05-22T05:10:16.834Z,6220
2017-05-22T05:10:42.957Z,6240
2017-05-22T05:11:09.060Z,6256
2017-05-22T05:11:35.167Z,6276
2017-05-22T05:12:01.256Z,6296
2017-05-22T05:12:27.358Z,6316
2017-05-22T05:12:53.620Z,6332
2017-05-22T05:13:19.710Z,6348
2017-05-22T05:13:45.808Z,6364
2017-05-22T05:14:11.996Z,6384
2017-05-22T05:14:38.118Z,6388
2017-05-22T05:15:04.234Z,6404
2017-05-22T05:15:30.344Z,6420
2017-05-22T05:15:56.442Z,6432
2017-05-22T05:16:22.546Z,6444
2017-05-22T05:16:48.640Z,6460
2017-05-22T05:17:14.762Z,6476
2017-05-22T05:17:40.923Z,6500
2017-05-22T05:18:07.070Z,6512
2017-05-22T05:18:33.186Z,6536
2017-05-22T05:18:59.351Z,6552
2017-05-22T05:19:25.476Z,6576
2017-05-22T05:19:51.564Z,6592
2017-05-22T05:20:18.152Z,6612
2017-05-22T05:20:44.252Z,6636
2017-05-22T05:21:10.367Z,6652
2017-05-22T05:21:36.472Z,6664
2017-05-22T05:22:02.641Z,6684
2017-05-22T05:22:28.727Z,6700
2017-05-22T05:22:54.830Z,6720
2017-05-22T05:23:20.964Z,6744
2017-05-22T05:23:47.085Z,6764
2017-05-22T05:24:13.206Z,6780
2017-05-22T05:24:39.367Z,6804
2017-05-22T05:25:05.513Z,6816
2017-05-22T05:25:31.632Z,6828
2017-05-22T05:25:57.767Z,6844
2017-05-22T05:26:23.891Z,6860
2017-05-22T05:26:49.981Z,6880
2017-05-22T05:27:16.086Z,6900
2017-05-22T05:27:42.205Z,6908
2017-05-22T05:28:08.320Z,6924
2017-05-22T05:28:34.442Z,6936
2017-05-22T05:29:00.582Z,6952
2017-05-22T05:29:26.721Z,6964
2017-05-22T05:29:52.847Z,6988
2017-05-22T05:30:19.015Z,7000
2017-05-22T05:30:45.122Z,7012
2017-05-22T05:31:11.327Z,7028
2017-05-22T05:31:37.443Z,7048
2017-05-22T05:32:03.547Z,7056
2017-05-22T05:32:29.657Z,7076
2017-05-22T05:32:55.752Z,7096
2017-05-22T05:33:21.878Z,7104
2017-05-22T05:33:47.993Z,7116
2017-05-22T05:34:14.174Z,7128
2017-05-22T05:34:40.332Z,7140
2017-05-22T05:35:06.491Z,7160
2017-05-22T05:35:32.596Z,7156
2017-05-22T05:35:58.733Z,7168
2017-05-22T05:36:24.820Z,7180
2017-05-22T05:36:50.918Z,7192
2017-05-22T05:37:17.050Z,7212
2017-05-22T05:37:43.140Z,7224
2017-05-22T05:38:09.312Z,7236
2017-05-22T05:38:35.437Z,7244
2017-05-22T05:39:01.543Z,7252
2017-05-22T05:39:27.675Z,7264
2017-05-22T05:39:53.816Z,7272
2017-05-22T05:40:20.017Z,7284
2017-05-22T05:40:46.152Z,7296
2017-05-22T05:41:12.245Z,7304
2017-05-22T05:41:38.343Z,7312
2017-05-22T05:42:04.451Z,7316
2017-05-22T05:42:30.543Z,7324
2017-05-22T05:42:56.685Z,7324
2017-05-22T05:43:22.879Z,7328
2017-05-22T05:43:49.007Z,7340
2017-05-22T05:44:15.110Z,7348
2017-05-22T05:44:41.202Z,7352
2017-05-22T05:45:07.301Z,7352
2017-05-22T05:45:33.408Z,7352
2017-05-22T05:45:59.531Z,7356
2017-05-22T05:46:25.625Z,7360
2017-05-22T05:46:51.736Z,7368
2017-05-22T05:47:17.863Z,7372
2017-05-22T05:47:44.002Z,7368
2017-05-22T05:48:10.137Z,7364
2017-05-22T05:48:36.236Z,7376
2017-05-22T05:49:02.379Z,7388
2017-05-22T05:49:28.482Z,7396
2017-05-22T05:49:54.598Z,7400
2017-05-22T05:50:20.735Z,7408
2017-05-22T05:50:46.834Z,7416
2017-05-22T05:51:12.950Z,7424
2017-05-22T05:51:39.055Z,7432
2017-05-22T05:52:05.216Z,7440
2017-05-22T05:52:31.291Z,7440
2017-05-22T05:52:57.423Z,7440
2017-05-22T05:53:23.623Z,7452
2017-05-22T05:53:49.745Z,7472
2017-05-22T05:54:15.848Z,7488
2017-05-22T05:54:42.092Z,7500
2017-05-22T05:55:08.208Z,7500
2017-05-22T05:55:34.355Z,7516
2017-05-22T05:56:00.495Z,7524
2017-05-22T05:56:26.626Z,7532
2017-05-22T05:56:52.788Z,7544
2017-05-22T05:57:18.904Z,7560
2017-05-22T05:57:45.033Z,7572
2017-05-22T05:58:11.141Z,7584
2017-05-22T05:58:37.231Z,7600
2017-05-22T05:59:03.399Z,7616
2017-05-22T05:59:29.552Z,7632
2017-05-22T05:59:55.677Z,7648
2017-05-22T06:00:21.769Z,7676
2017-05-22T06:00:47.871Z,7692
2017-05-22T06:01:13.972Z,7696
2017-05-22T06:01:40.134Z,7716
2017-05-22T06:02:06.253Z,7728
2017-05-22T06:02:32.374Z,7736
2017-05-22T06:02:58.509Z,7756
2017-05-22T06:03:24.634Z,7780
2017-05-22T06:03:50.776Z,7804
2017-05-22T06:04:16.916Z,7820
2017-05-22T06:04:43.042Z,7824
2017-05-22T06:05:09.159Z,7848
2017-05-22T06:05:35.264Z,7872
2017-05-22T06:06:01.366Z,7892
2017-05-22T06:06:27.457Z,7904
2017-05-22T06:06:53.563Z,7924
2017-05-22T06:07:19.670Z,7952
2017-05-22T06:07:46.213Z,7964